LGAV/ATH METAR and TAF weather

Enter ICAO airport designator
Station Type Date Time Source
LGAV METAR 2020/04/05 15:20 UTC NOAA

LGAV 051520Z 34013KT 9999 -RA FEW018 BKN035 BKN070 13/07 Q1011 NOSIG


Station Type Date Time Source
LGAV Decoded METAR 2020/04/05 15:20 UTC NOAA

Athens Eleftherios Venizelos International Airport, Greece (LGAV) 37-56N 023-56E
Apr 05, 2020 - 11:20 AM EDT / 2020.04.05 1520 UTC
Wind: from the NNW (340 degrees) at 15 MPH (13 KT):0
Visibility: greater than 7 mile(s):0
Sky conditions: mostly cloudy
Weather: light rain
Temperature: 55 F (13 C)
Dew Point: 44 F (7 C)
Relative Humidity: 66%
Pressure (altimeter): 29.85 in. Hg (1011 hPa)
ob: LGAV 051520Z 34013KT 9999 -RA FEW018 BKN035 BKN070 13/07 Q1011 NOSIG
cycle: 15

Station Type Date Time Source
LGAV TAF 2020/04/05 12:12 UTC NOAA

TAF TAF LGAV 051100Z 0512/0612 32015KT 9999 FEW015 BKN025 PROB40
TEMPO 0512/0612 5000 RA SCT010 BKN020 PROB30
TEMPO 0512/0515 3000 TSRA SCT010 FEW018CB BKN020 BKN070
TEMPO 0512/0524 36015G30KT
TEMPO 0600/0612 36025G40KT

Example: see airport list